MAPA DE AEROPUERTO

INFORMACIÓN METAR y TAF

METAR FOR BGSF
ADDS - METARS form results

(1603 UTC 07 May 2021)
Data provider http://aviationweather.gov/metar/data/
 
METAR text: BGSF 071550Z AUTO 07010KT 9999NDV BKN028/// OVC032/// 03/M03 Q1022
Conditions at: BGSF (SONDRE STROMFJOR, GL) observed 1550 UTC 07 May 2021
Temperature: 3.0°C (37°F)
Dewpoint: -3.0°C (27°F) [RH = 65%]
Pressure (altimeter): 30.18 inches Hg (1022.0 mb)
Winds: from the ENE (70 degrees) at 12 MPH (10 knots; 5.1 m/s)
Visibility: missing
Ceiling: 2800 feet AGL
Clouds: broken clouds at 2800 feet AGL
overcast cloud deck at 3200 feet AGL
Weather: no significant weather observed at this time

Forecast for: BGSF (SONDRE STROMFJOR, GL)
Text: TAF BGSF 071100Z 0712/0722 VRB08KT 9999 SCT040
Forecast period: 1200 to 2200 UTC 07 May 2021
Forecast type: FROM: standard forecast or significant change
Winds: variable direction winds at 9 MPH (8 knots; 4.1 m/s)
Visibility: 6 or more miles (10+ km)
Ceiling: at least 12,000 feet AGL
Clouds: scattered clouds at 4000 feet AGL
Weather: no significant weather forecast for this period
Text: TEMPO 0712/0722 BKN024
Forecast period: 1200 to 2200 UTC 07 May 2021
Forecast type: TEMPORARY: The following changes expected for less than half the time period
Visibility: missing
Ceiling: 2400 feet AGL
Clouds: broken clouds at 2400 feet AGL
Weather: no significant weather forecast for this period